Hlavní strana
METAR-TAF:

METAR-TAF

Letiště :

Gafsa, Tunisko

zeměpisná šířka: 34-25N, zeměpisná délka: 008-49E, výška: 313 m

Aktuální stav počasí

Zpráva byla vytvořena před 30 minutami, v 18:00 UTC
Jihojihozápadní vítr 6 kt, proměnlivý mezi jižním a jihozápadním
Teplota 16°C
Vlhkost vzduchu 55%
Tlak 1019 hPa
Viditelnost 10 km a více
Žádná oblačnost pod 1500 m, nevyskytují se cumulonimby.

METAR: DTTF 141800Z 21006KT 170V230 CAVOK 16/07 Q1019 NOSIG

Čas: 19:30 (18:30 UTC)

Předpověď počasí

Zpráva byla vytvořena před 3 hodinami a 30 minutami, v 15:00 UTC
Předpověď platná od 14 v 16 UTC do 15 v 01 UTC
Jihozápadní vítr 10 kt
Viditelnost 10 km a více
Žádná oblačnost pod 1500 m, nevyskytují se cumulonimby.
Změna
od 14 v 16 UTC do 14 v 18 UTC
vítr z různých směrů 3 kt

TAF: DTTF 141500Z 1416/1501 23010KT CAVOK BECMG 1416/1418 VRB03KT

Stav a předpovědi počasí z více než 4 000 letišť (zprávy METAR a TAF).

Červené a žluté tečky na mapě představují dostupné meteorologické stanice.

Když kurzor umístíte na tečku, zobrazí se název stanice.

Pak kliknutím zobrazíte stav a předpověď počasí.

Chcete-li změnit mapu, kliknutím na zelené tlačítko se znaménkem +mapu přiblížíte, kliknutím na zelené tlačítko se znaménkem – mapu oddálíte a kliknutím na zelené šipky přejdete na sousední mapy.


METAR-TAF: